createdAt,value
2022-11-02T00:01:27.422Z,4.34
2022-11-02T00:03:55.999Z,4.16
2022-11-02T00:06:24.551Z,4.15
2022-11-02T00:08:53.076Z,3.91
2022-11-02T00:11:22.856Z,3.45
2022-11-02T00:13:51.290Z,3.13
2022-11-02T00:16:21.951Z,3.27
2022-11-02T00:18:52.680Z,3.14
2022-11-02T00:21:22.754Z,2.99
2022-11-02T00:23:51.640Z,3.24
2022-11-02T00:26:19.947Z,3.35
2022-11-02T00:28:49.848Z,3.26
2022-11-02T00:31:18.210Z,3.01
2022-11-02T00:33:46.712Z,3.18
2022-11-02T00:36:15.268Z,3.40
2022-11-02T00:38:43.712Z,3.43
2022-11-02T00:41:12.930Z,3.73
2022-11-02T00:43:41.449Z,3.68
2022-11-02T00:46:11.331Z,3.61
2022-11-02T00:48:39.733Z,3.83
2022-11-02T00:51:09.302Z,3.66
2022-11-02T00:53:37.805Z,3.88
2022-11-02T00:56:07.096Z,3.99
2022-11-02T00:58:35.550Z,3.99
2022-11-02T01:01:06.638Z,4.06
2022-11-02T01:03:36.622Z,4.07
2022-11-02T01:06:10.063Z,3.86
2022-11-02T01:08:39.566Z,3.96
2022-11-02T01:11:12.871Z,3.68
2022-11-02T01:13:41.578Z,3.81
2022-11-02T01:16:11.027Z,3.83
2022-11-02T01:18:41.372Z,4.09
2022-11-02T01:21:10.244Z,3.90
2022-11-02T01:23:38.957Z,4.26
2022-11-02T01:26:09.496Z,3.87
2022-11-02T01:28:38.144Z,3.94
2022-11-02T01:31:07.646Z,3.93
2022-11-02T01:33:36.992Z,4.10
2022-11-02T01:36:08.257Z,4.08
2022-11-02T01:38:36.784Z,4.25
2022-11-02T01:41:05.498Z,4.34
2022-11-02T01:43:36.095Z,4.21
2022-11-02T01:46:14.911Z,3.76
2022-11-02T01:48:46.208Z,4.06
2022-11-02T01:51:21.911Z,4.31
2022-11-02T01:53:54.553Z,4.15
2022-11-02T01:56:25.519Z,4.31
2022-11-02T01:58:59.490Z,4.18
2022-11-02T02:01:28.366Z,4.22
2022-11-02T02:03:58.558Z,3.49
2022-11-02T02:06:29.471Z,3.47
2022-11-02T02:09:04.659Z,3.99
2022-11-02T02:11:34.907Z,4.07
2022-11-02T02:14:05.937Z,3.94
2022-11-02T02:16:49.634Z,4.31
2022-11-02T02:19:33.361Z,4.28
2022-11-02T02:22:21.997Z,4.11
2022-11-02T02:24:56.975Z,3.89
2022-11-02T02:27:31.379Z,3.75
2022-11-02T02:30:11.900Z,3.37
2022-11-02T02:32:47.170Z,3.73
2022-11-02T02:35:25.644Z,3.85
2022-11-02T02:37:57.215Z,3.94
2022-11-02T02:40:33.162Z,3.97
2022-11-02T02:43:07.003Z,4.00
2022-11-02T02:45:39.828Z,4.47
2022-11-02T02:48:14.826Z,4.31
2022-11-02T02:50:49.661Z,4.57
2022-11-02T02:53:23.880Z,4.10
2022-11-02T02:55:53.955Z,4.20
2022-11-02T02:58:28.657Z,4.20
2022-11-02T03:01:01.469Z,4.24
2022-11-02T03:03:31.980Z,4.40
2022-11-02T03:06:06.309Z,3.32
2022-11-02T03:08:39.571Z,3.25
2022-11-02T03:11:15.246Z,3.43
2022-11-02T03:14:01.552Z,3.28
2022-11-02T03:16:44.304Z,3.77
2022-11-02T03:19:24.837Z,3.28
2022-11-02T03:22:01.336Z,3.38
2022-11-02T03:24:37.325Z,2.82
2022-11-02T03:27:17.322Z,3.29
2022-11-02T03:29:55.554Z,3.46
2022-11-02T03:32:26.567Z,3.98
2022-11-02T03:34:58.498Z,3.97
2022-11-02T03:37:34.831Z,3.92
2022-11-02T03:40:12.574Z,3.69
2022-11-02T03:42:45.644Z,3.85
2022-11-02T03:45:18.410Z,3.80
2022-11-02T03:47:55.460Z,3.70
2022-11-02T03:50:24.986Z,3.82
2022-11-02T03:52:59.006Z,3.71
2022-11-02T03:55:33.783Z,3.70
2022-11-02T03:58:02.809Z,3.66
2022-11-02T04:00:36.117Z,3.50
2022-11-02T04:03:13.564Z,3.47
2022-11-02T04:05:45.538Z,3.54
2022-11-02T04:08:24.589Z,3.31
2022-11-02T04:11:25.873Z,3.61
2022-11-02T04:14:15.244Z,3.58
2022-11-02T04:16:45.356Z,4.13
2022-11-02T04:19:29.057Z,3.87
2022-11-02T04:22:21.154Z,3.85
2022-11-02T04:25:11.410Z,3.49
2022-11-02T04:27:41.596Z,3.55
2022-11-02T04:30:11.955Z,3.08
2022-11-02T04:32:58.598Z,3.11
2022-11-02T04:35:32.743Z,3.16
2022-11-02T04:38:19.161Z,3.17
2022-11-02T04:40:47.938Z,3.34
2022-11-02T04:43:16.159Z,3.62
2022-11-02T04:45:44.798Z,3.31
2022-11-02T04:48:13.639Z,3.33
2022-11-02T04:50:43.601Z,3.45
2022-11-02T04:53:12.699Z,3.27
2022-11-02T04:55:41.857Z,3.04
2022-11-02T04:58:11.363Z,2.79
2022-11-02T05:00:39.694Z,3.27
2022-11-02T05:03:12.436Z,3.30
2022-11-02T05:05:44.888Z,3.03
2022-11-02T05:08:14.656Z,3.19
2022-11-02T05:10:43.981Z,3.55
2022-11-02T05:13:13.742Z,3.57
2022-11-02T05:15:42.315Z,4.03
2022-11-02T05:18:14.820Z,3.78
2022-11-02T05:20:52.505Z,3.64
2022-11-02T05:23:23.863Z,3.85
2022-11-02T05:25:55.160Z,3.51
2022-11-02T05:28:25.666Z,3.29
2022-11-02T05:30:54.970Z,3.26
2022-11-02T05:33:29.408Z,3.71
2022-11-02T05:36:02.435Z,3.65
2022-11-02T05:38:32.563Z,3.86
2022-11-02T05:41:02.393Z,3.62
2022-11-02T05:43:35.521Z,3.61
2022-11-02T05:46:07.035Z,3.44
2022-11-02T05:48:35.554Z,3.97
2022-11-02T05:51:06.260Z,4.01
2022-11-02T05:54:32.377Z,3.77
2022-11-02T05:57:01.659Z,3.68
2022-11-02T05:59:54.316Z,3.39
2022-11-02T06:02:36.651Z,3.36
2022-11-02T06:05:06.834Z,3.80
2022-11-02T06:07:36.918Z,3.31
2022-11-02T06:10:06.434Z,3.78
2022-11-02T06:12:38.871Z,3.78
2022-11-02T06:15:08.455Z,3.27
2022-11-02T06:17:40.477Z,3.35
2022-11-02T06:20:13.479Z,3.39
2022-11-02T06:22:43.886Z,3.69
2022-11-02T06:25:12.882Z,3.41
2022-11-02T06:27:45.841Z,3.41
2022-11-02T06:30:15.671Z,3.62
2022-11-02T06:32:48.386Z,3.61
2022-11-02T06:35:18.073Z,3.86
2022-11-02T06:37:48.436Z,4.00
2022-11-02T06:40:19.281Z,4.14
2022-11-02T06:43:10.953Z,3.97
2022-11-02T06:45:38.516Z,4.34
2022-11-02T06:48:09.216Z,4.31
2022-11-02T06:50:38.100Z,4.38
2022-11-02T06:53:24.544Z,4.22
2022-11-02T06:55:54.554Z,4.02
2022-11-02T06:58:24.340Z,3.94
2022-11-02T07:00:59.006Z,3.56
2022-11-02T07:03:30.888Z,3.65
2022-11-02T07:06:02.144Z,3.72
2022-11-02T07:08:32.079Z,3.87
2022-11-02T07:11:00.611Z,4.20
2022-11-02T07:13:31.560Z,4.01
2022-11-02T07:16:00.507Z,4.05
2022-11-02T07:18:30.356Z,3.87
2022-11-02T07:21:00.489Z,4.11
2022-11-02T07:23:29.331Z,3.59
2022-11-02T07:26:06.275Z,3.42
2022-11-02T07:28:36.989Z,3.69
2022-11-02T07:31:06.054Z,3.90
2022-11-02T07:33:34.885Z,3.26
2022-11-02T07:36:04.683Z,4.12
2022-11-02T07:38:33.217Z,3.83
2022-11-02T07:41:04.061Z,3.52
2022-11-02T07:43:32.679Z,3.74
2022-11-02T07:46:15.159Z,3.34
2022-11-02T07:48:43.489Z,3.33
2022-11-02T07:51:14.458Z,3.37
2022-11-02T07:53:43.072Z,3.27
2022-11-02T07:56:15.873Z,3.17
2022-11-02T07:58:44.468Z,4.21
2022-11-02T08:01:13.063Z,4.29
2022-11-02T08:03:42.138Z,4.40
2022-11-02T08:06:10.569Z,3.70
2022-11-02T08:08:39.067Z,4.34
2022-11-02T08:11:09.389Z,3.97
2022-11-02T08:13:39.879Z,3.80
2022-11-02T08:16:08.862Z,3.50
2022-11-02T08:18:37.587Z,3.50
2022-11-02T08:21:05.949Z,3.81
2022-11-02T08:23:34.896Z,4.27
2022-11-02T08:26:03.786Z,3.76
2022-11-02T08:28:36.135Z,4.39
2022-11-02T08:31:07.433Z,3.79
2022-11-02T08:33:35.968Z,4.96
2022-11-02T08:36:07.594Z,4.87
2022-11-02T08:39:02.740Z,4.63
2022-11-02T08:41:31.383Z,4.86
2022-11-02T08:44:00.243Z,4.90
2022-11-02T08:46:31.239Z,4.24
2022-11-02T08:48:59.824Z,4.40
2022-11-02T08:51:28.503Z,3.90
2022-11-02T08:53:56.741Z,4.19
2022-11-02T08:56:27.937Z,4.38
2022-11-02T08:58:56.509Z,4.72
2022-11-02T09:01:25.395Z,4.31
2022-11-02T09:03:58.091Z,5.12
2022-11-02T09:06:26.947Z,4.81
2022-11-02T09:08:57.938Z,4.15
2022-11-02T09:11:27.714Z,4.32
2022-11-02T09:13:57.196Z,4.75
2022-11-02T09:16:27.077Z,5.05
2022-11-02T09:18:56.865Z,4.41
2022-11-02T09:21:28.995Z,3.83
2022-11-02T09:23:59.912Z,4.14
2022-11-02T09:26:28.875Z,4.56
2022-11-02T09:28:57.319Z,4.51
2022-11-02T09:31:25.993Z,4.92
2022-11-02T09:33:54.493Z,4.91
2022-11-02T09:36:27.043Z,4.35
2022-11-02T09:38:55.698Z,4.10
2022-11-02T09:41:41.158Z,4.00
2022-11-02T09:44:16.561Z,3.83
2022-11-02T09:46:50.640Z,3.87
2022-11-02T09:49:30.138Z,4.02
2022-11-02T09:52:01.567Z,3.84
2022-11-02T09:54:34.190Z,4.67
2022-11-02T09:57:08.743Z,4.73
2022-11-02T09:59:42.314Z,4.75
2022-11-02T10:02:25.601Z,3.95
2022-11-02T10:09:03.891Z,5.11
2022-11-02T10:11:45.280Z,4.18
2022-11-02T10:14:18.381Z,4.45
2022-11-02T10:16:55.428Z,3.89
2022-11-02T10:19:27.916Z,3.83
2022-11-02T10:22:01.068Z,3.81
2022-11-02T10:24:39.864Z,4.31
2022-11-02T10:27:16.418Z,4.11
2022-11-02T10:29:50.075Z,3.94
2022-11-02T10:32:19.155Z,4.67
2022-11-02T10:34:59.086Z,4.56
2022-11-02T10:37:52.249Z,4.19
2022-11-02T10:40:40.374Z,4.18
2022-11-02T10:43:20.102Z,3.85
2022-11-02T10:46:16.465Z,4.31
2022-11-02T10:48:53.717Z,3.78
2022-11-02T10:51:24.115Z,3.93
2022-11-02T10:53:54.548Z,3.65
2022-11-02T10:56:29.305Z,3.55
2022-11-02T11:02:13.609Z,3.19
2022-11-02T11:04:43.978Z,3.20
2022-11-02T11:07:17.947Z,3.84
2022-11-02T11:09:56.302Z,3.94
2022-11-02T11:12:32.048Z,4.45
2022-11-02T11:20:43.240Z,3.43
2022-11-02T11:23:24.744Z,3.74
2022-11-02T11:26:01.812Z,4.07
2022-11-02T11:28:34.279Z,3.84
2022-11-02T11:31:10.075Z,3.40
2022-11-02T11:33:54.343Z,4.08
2022-11-02T11:36:28.773Z,3.49
2022-11-02T11:39:00.217Z,3.32
2022-11-02T11:41:29.894Z,3.41
2022-11-02T11:44:00.690Z,3.62
2022-11-02T11:46:41.667Z,3.63
2022-11-02T11:49:31.063Z,2.89
2022-11-02T11:52:05.733Z,2.59
2022-11-02T11:54:35.341Z,3.09
2022-11-02T11:57:24.410Z,3.26
2022-11-02T11:59:55.914Z,3.16
2022-11-02T12:02:27.718Z,3.16
2022-11-02T12:05:04.530Z,3.24
2022-11-02T12:07:55.973Z,3.11
2022-11-02T12:10:36.149Z,2.82
2022-11-02T12:13:19.329Z,3.41
2022-11-02T12:16:10.121Z,3.50
2022-11-02T12:18:55.135Z,3.85
2022-11-02T12:21:36.185Z,3.80
2022-11-02T12:24:30.522Z,3.47
2022-11-02T12:27:15.435Z,3.15
2022-11-02T12:30:15.553Z,2.66
2022-11-02T12:33:06.944Z,2.68
2022-11-02T12:36:11.992Z,2.79
2022-11-02T12:39:08.982Z,2.80
2022-11-02T12:41:51.441Z,2.52
2022-11-02T12:44:36.619Z,3.18
2022-11-02T12:47:28.235Z,3.25
2022-11-02T12:50:09.815Z,3.13
2022-11-02T12:52:51.574Z,2.80
2022-11-02T12:55:25.562Z,2.51
2022-11-02T12:57:59.908Z,2.59
2022-11-02T13:00:34.327Z,3.11
2022-11-02T13:03:15.501Z,2.98
2022-11-02T13:05:54.317Z,3.04
2022-11-02T13:08:29.877Z,3.08
2022-11-02T13:11:02.269Z,2.66
2022-11-02T13:13:37.401Z,2.16
2022-11-02T13:16:09.356Z,2.17
2022-11-02T13:18:44.997Z,2.05
2022-11-02T13:21:18.213Z,2.11
2022-11-02T13:23:52.255Z,2.24
2022-11-02T13:26:29.306Z,1.89
2022-11-02T13:29:04.295Z,1.97
2022-11-02T13:31:37.206Z,1.84
2022-11-02T13:34:10.619Z,2.10
2022-11-02T13:36:41.665Z,2.18
2022-11-02T13:39:19.112Z,1.86
2022-11-02T13:42:13.865Z,1.83
2022-11-02T13:45:24.416Z,2.08
2022-11-02T13:48:23.690Z,2.32
2022-11-02T13:52:14.913Z,2.26
2022-11-02T14:04:58.891Z,2.47
2022-11-02T14:07:32.902Z,2.25
2022-11-02T14:10:08.796Z,1.61
2022-11-02T14:12:45.885Z,1.72
2022-11-02T14:15:44.158Z,1.83
2022-11-02T14:18:32.082Z,2.22
2022-11-02T14:21:40.650Z,2.35
2022-11-02T14:24:44.566Z,2.57
2022-11-02T14:27:31.461Z,2.58
2022-11-02T14:30:00.546Z,2.82
2022-11-02T14:32:49.865Z,2.69
2022-11-02T14:39:10.681Z,2.36
2022-11-02T14:41:57.226Z,2.63
2022-11-02T14:44:53.382Z,2.68
2022-11-02T14:47:28.194Z,2.31
2022-11-02T14:50:10.563Z,2.31
2022-11-02T14:52:40.365Z,2.60
2022-11-02T14:55:26.062Z,2.08
2022-11-02T14:57:58.724Z,2.16
2022-11-02T15:00:33.687Z,2.02
2022-11-02T15:03:04.335Z,1.79
2022-11-02T15:05:38.975Z,2.19
2022-11-02T15:08:10.257Z,1.58
2022-11-02T15:10:44.050Z,1.72
2022-11-02T15:13:38.011Z,1.42
2022-11-02T15:16:25.154Z,1.52
2022-11-02T15:18:57.868Z,1.19
2022-11-02T15:21:31.548Z,1.31
2022-11-02T15:24:17.993Z,1.56
2022-11-02T15:26:51.049Z,1.70
2022-11-02T15:29:39.111Z,2.21
2022-11-02T15:32:19.629Z,2.17
2022-11-02T15:34:52.927Z,2.15
2022-11-02T15:37:25.487Z,1.70
2022-11-02T15:40:02.522Z,1.51
2022-11-02T15:42:45.587Z,2.07
2022-11-02T15:45:57.710Z,1.91
2022-11-02T15:48:43.768Z,2.02
2022-11-02T15:51:27.171Z,1.70
2022-11-02T15:54:21.542Z,1.37
2022-11-02T15:57:13.385Z,1.82
2022-11-02T16:00:11.348Z,1.54
2022-11-02T16:02:44.034Z,1.47
2022-11-02T16:05:24.136Z,1.77
2022-11-02T16:08:10.509Z,2.07
2022-11-02T16:10:40.517Z,2.20
2022-11-02T16:13:48.773Z,1.86
2022-11-02T16:16:24.811Z,1.89
2022-11-02T16:18:55.826Z,1.59
2022-11-02T16:21:24.999Z,1.94
2022-11-02T16:23:57.194Z,1.32
2022-11-02T16:26:28.643Z,1.42
2022-11-02T16:29:01.904Z,1.47
2022-11-02T16:31:35.395Z,1.75
2022-11-02T16:34:09.023Z,1.51
2022-11-02T16:36:41.408Z,1.53
2022-11-02T16:39:19.240Z,1.67
2022-11-02T16:41:50.046Z,1.85
2022-11-02T16:44:23.144Z,1.59
2022-11-02T16:46:57.730Z,1.81
2022-11-02T16:49:27.447Z,1.82
2022-11-02T16:51:57.915Z,1.74
2022-11-02T16:54:38.686Z,1.76
2022-11-02T16:57:13.808Z,1.90
2022-11-02T16:59:53.110Z,2.01
2022-11-02T17:02:30.963Z,2.07
2022-11-02T17:05:04.488Z,1.98
2022-11-02T17:07:40.054Z,1.55
2022-11-02T17:10:10.697Z,1.57
2022-11-02T17:12:45.031Z,1.98
2022-11-02T17:15:18.386Z,2.48
2022-11-02T17:17:49.387Z,1.99
2022-11-02T17:20:24.487Z,1.90
2022-11-02T17:23:01.763Z,1.76
2022-11-02T17:25:41.264Z,1.76
2022-11-02T17:28:48.705Z,1.74
2022-11-02T17:31:24.653Z,1.47
2022-11-02T17:33:55.658Z,1.06
2022-11-02T17:36:36.470Z,1.12
2022-11-02T17:39:06.222Z,1.03
2022-11-02T17:41:56.588Z,1.28
2022-11-02T17:44:26.515Z,1.00
2022-11-02T17:46:56.673Z,0.86
2022-11-02T17:49:26.654Z,0.95
2022-11-02T17:51:58.993Z,0.97
2022-11-02T17:54:27.540Z,1.53
2022-11-02T17:56:56.143Z,0.87
2022-11-02T17:59:26.522Z,0.85
2022-11-02T18:01:57.573Z,0.96
2022-11-02T18:04:34.202Z,0.86
2022-11-02T18:07:04.444Z,0.89
2022-11-02T18:09:33.465Z,0.82
2022-11-02T18:12:01.997Z,0.67
2022-11-02T18:14:30.723Z,0.79
2022-11-02T18:16:59.411Z,0.61
2022-11-02T18:19:28.447Z,0.73
2022-11-02T18:21:58.366Z,0.54
2022-11-02T18:24:26.946Z,0.82
2022-11-02T18:26:56.456Z,0.72
2022-11-02T18:29:25.753Z,0.54
2022-11-02T18:31:54.532Z,0.46
2022-11-02T18:34:23.002Z,0.63
2022-11-02T18:36:53.888Z,0.47
2022-11-02T18:39:23.945Z,0.92
2022-11-02T18:41:53.732Z,0.71
2022-11-02T18:44:22.326Z,0.17
2022-11-02T18:46:50.902Z,0.47
2022-11-02T18:49:19.475Z,0.30
2022-11-02T18:51:48.118Z,1.24
2022-11-02T18:54:17.059Z,1.04
2022-11-02T18:56:47.472Z,0.70
2022-11-02T18:59:15.970Z,0.53
2022-11-02T19:01:47.719Z,0.28
2022-11-02T19:04:17.804Z,0.34
2022-11-02T19:07:04.572Z,1.14
2022-11-02T19:09:33.632Z,0.60
2022-11-02T19:12:06.297Z,0.80
2022-11-02T19:14:37.543Z,1.05
2022-11-02T19:17:12.596Z,0.95
2022-11-02T19:19:43.296Z,0.96
2022-11-02T19:22:14.413Z,0.90
2022-11-02T19:24:52.489Z,0.96
2022-11-02T19:27:25.660Z,0.74
2022-11-02T19:29:54.540Z,1.03
2022-11-02T19:32:23.085Z,1.19
2022-11-02T19:34:51.741Z,0.85
2022-11-02T19:37:20.490Z,0.71
2022-11-02T19:39:48.948Z,0.68
2022-11-02T19:42:17.546Z,1.02
2022-11-02T19:44:47.391Z,1.04
2022-11-02T19:47:18.896Z,0.89
2022-11-02T19:49:47.425Z,1.07
2022-11-02T19:52:15.873Z,0.95
2022-11-02T19:54:47.503Z,1.18
2022-11-02T19:57:25.457Z,1.35
2022-11-02T20:00:00.306Z,0.74
2022-11-02T20:02:28.822Z,1.12
2022-11-02T20:04:58.535Z,1.27
2022-11-02T20:07:33.049Z,1.13
2022-11-02T20:10:01.618Z,1.46
2022-11-02T20:12:34.665Z,1.58
2022-11-02T20:15:04.993Z,1.40
2022-11-02T20:17:42.176Z,1.21
2022-11-02T20:20:30.176Z,1.18
2022-11-02T20:22:58.770Z,0.87
2022-11-02T20:25:46.262Z,0.51
2022-11-02T20:31:23.221Z,0.56
2022-11-02T20:33:51.849Z,0.84
2022-11-02T20:36:20.097Z,0.92
2022-11-02T20:38:49.274Z,0.62
2022-11-02T20:41:19.085Z,1.09
2022-11-02T20:43:49.426Z,0.99
2022-11-02T20:49:20.482Z,0.98
2022-11-02T20:51:49.886Z,1.06
2022-11-02T20:54:19.760Z,0.85
2022-11-02T20:56:48.690Z,0.84
2022-11-02T20:59:17.319Z,0.83
2022-11-02T21:01:45.653Z,1.28
2022-11-02T21:04:20.805Z,1.04
2022-11-02T21:06:50.416Z,1.17
2022-11-02T21:09:19.224Z,1.15
2022-11-02T21:12:05.172Z,1.34
2022-11-02T21:14:36.770Z,0.94
2022-11-02T21:17:06.892Z,0.69
2022-11-02T21:19:36.804Z,1.03
2022-11-02T21:22:05.303Z,1.11
2022-11-02T21:24:33.902Z,1.04
2022-11-02T21:27:02.141Z,1.02
2022-11-02T21:29:30.626Z,1.44
2022-11-02T21:31:59.015Z,0.93
2022-11-02T21:34:27.497Z,1.14
2022-11-02T21:36:57.296Z,1.54
2022-11-02T21:39:25.680Z,1.26
2022-11-02T21:41:54.032Z,1.36
2022-11-02T21:44:22.378Z,1.31
2022-11-02T21:46:51.330Z,1.41
2022-11-02T21:49:19.823Z,1.44
2022-11-02T21:51:48.222Z,1.50
2022-11-02T21:54:18.040Z,1.37
2022-11-02T21:56:48.437Z,1.41
2022-11-02T21:59:16.969Z,1.53
2022-11-02T22:01:45.035Z,1.70
2022-11-02T22:04:15.887Z,1.34
2022-11-02T22:06:44.605Z,1.20
2022-11-02T22:09:13.427Z,1.42
2022-11-02T22:11:45.089Z,1.65
2022-11-02T22:14:14.247Z,1.23
2022-11-02T22:16:43.895Z,1.44
2022-11-02T22:19:13.715Z,1.10
2022-11-02T22:21:44.061Z,1.16
2022-11-02T22:24:13.294Z,1.32
2022-11-02T22:26:43.184Z,1.29
2022-11-02T22:29:11.761Z,1.49
2022-11-02T22:31:41.878Z,1.37
2022-11-02T22:34:12.112Z,1.16
2022-11-02T22:36:41.860Z,0.48
2022-11-02T22:39:12.085Z,0.45
2022-11-02T22:41:43.180Z,0.48
2022-11-02T22:44:13.498Z,0.34
2022-11-02T22:46:43.466Z,0.37
2022-11-02T22:49:13.646Z,0.42
2022-11-02T22:51:45.778Z,0.72
2022-11-02T22:54:15.841Z,0.88
2022-11-02T22:56:47.440Z,0.55
2022-11-02T22:59:16.570Z,0.65
2022-11-02T23:01:45.388Z,0.40
2022-11-02T23:04:14.250Z,0.74
2022-11-02T23:06:42.342Z,0.56
2022-11-02T23:09:12.255Z,0.62
2022-11-02T23:11:39.766Z,0.43
2022-11-02T23:14:11.743Z,0.80
2022-11-02T23:16:42.267Z,0.93
2022-11-02T23:19:31.038Z,1.30
2022-11-02T23:22:27.202Z,0.81
2022-11-02T23:25:12.866Z,0.89
2022-11-02T23:27:57.671Z,1.21
2022-11-02T23:30:46.492Z,0.78
2022-11-02T23:33:16.247Z,1.06
2022-11-02T23:36:02.129Z,1.15
2022-11-02T23:38:51.400Z,0.88
2022-11-02T23:41:20.759Z,0.60
2022-11-02T23:43:49.556Z,0.65
2022-11-02T23:46:19.395Z,0.55
2022-11-02T23:48:51.139Z,0.80
2022-11-02T23:51:39.384Z,0.41
2022-11-02T23:54:24.967Z,0.26
2022-11-02T23:56:53.994Z,0.62
2022-11-02T23:59:22.414Z,0.85
